HOT - SCOPE
in the School of Ocean and Earth Science and Technology at the University of Hawai'i


Rockblock # 2 : IMEI 21910 (s/n 11237)
GMT GMT Latitude Longitude Speed Heading
date time deg N deg W knots deg
7-18-2017 20:55:49 21o 18.927' ( 21.3154) 157o 52.603' (-157.8767) 57.00 45
7-18-2017 19:49:34 21o 18.931' ( 21.3155) 157o 52.589' (-157.8765) 51.00 45
7-18-2017 19:19:01 21o 18.929' ( 21.3155) 157o 52.586' (-157.8764) 9.00 45
7-18-2017 17:36:22 21o 18.934' ( 21.3156) 157o 52.592' (-157.8765) 41.00 8
7-18-2017 17:05:50 21o 18.926' ( 21.3154) 157o 52.590' (-157.8765) 24.00 8
7-18-2017 16:35:50 21o 18.929' ( 21.3155) 157o 52.591' (-157.8765) 4.00 8
7-18-2017 16:04:49 21o 18.929' ( 21.3155) 157o 52.588' (-157.8765) 5.00 8
7-18-2017 15:34:18 21o 18.927' ( 21.3154) 157o 52.568' (-157.8761) -26.00 8
7-18-2017 15:03:46 21o 18.937' ( 21.3156) 157o 52.603' (-157.8767) 50.00 8
7-18-2017 14:33:32 21o 18.926' ( 21.3154) 157o 52.587' (-157.8765) 45.00 8
7-18-2017 14:02:50 21o 18.942' ( 21.3157) 157o 52.601' (-157.8767) 30.00 8
7-18-2017 13:32:14 21o 18.929' ( 21.3155) 157o 52.604' (-157.8767) 76.00 8
7-18-2017 13:01:41 21o 18.922' ( 21.3154) 157o 52.595' (-157.8766) 55.00 8
7-18-2017 12:31:13 21o 18.933' ( 21.3156) 157o 52.606' (-157.8768) 40.00 8
7-18-2017 12:00:42 21o 18.929' ( 21.3155) 157o 52.592' (-157.8765) 34.00 8
7-18-2017 11:30:14 21o 18.934' ( 21.3156) 157o 52.603' (-157.8767) 25.00 8
7-18-2017 10:59:46 21o 18.940' ( 21.3157) 157o 52.606' (-157.8768) 65.00 8
7-18-2017 9:53:32 21o 18.935' ( 21.3156) 157o 52.573' (-157.8762) -11.00 8
7-18-2017 9:22:58 21o 18.929' ( 21.3155) 157o 52.594' (-157.8766) 31.00 8
7-18-2017 7:41:02 21o 18.931' ( 21.3155) 157o 52.585' (-157.8764) 47.00 282
7-18-2017 7:10:32 21o 18.922' ( 21.3154) 157o 52.575' (-157.8762) -57.00 282
7-18-2017 6:40:00 21o 18.933' ( 21.3156) 157o 52.591' (-157.8765) -18.00 282
7-18-2017 6:09:56 21o 18.929' ( 21.3155) 157o 52.578' (-157.8763) 31.00 282
7-18-2017 5:39:26 21o 18.928' ( 21.3155) 157o 52.600' (-157.8767) 35.00 282
7-18-2017 5:08:50 21o 18.930' ( 21.3155) 157o 52.600' (-157.8767) 35.00 282
7-18-2017 4:37:44 21o 18.923' ( 21.3154) 157o 52.598' (-157.8766) 28.00 282
7-18-2017 4:07:32 21o 18.926' ( 21.3154) 157o 52.610' (-157.8768) 65.00 282
7-18-2017 3:36:29 21o 18.929' ( 21.3155) 157o 52.596' (-157.8766) -7.00 282
7-18-2017 3:05:47 21o 18.938' ( 21.3156) 157o 52.600' (-157.8767) -7.00 282
7-18-2017 1:59:15 21o 18.919' ( 21.3153) 157o 52.605' (-157.8767) 63.00 282
7-18-2017 1:28:30 21o 18.926' ( 21.3154) 157o 52.601' (-157.8767) 39.00 282
7-17-2017 23:46:09 21o 18.936' ( 21.3156) 157o 52.613' (-157.8769) 53.00 282
7-17-2017 23:15:31 21o 18.937' ( 21.3156) 157o 52.573' (-157.8762) 16.00 271
7-17-2017 22:44:58 21o 18.931' ( 21.3155) 157o 52.597' (-157.8766) 61.00 271
7-17-2017 21:39:02 21o 18.932' ( 21.3155) 157o 52.556' (-157.8759) -33.00 271
7-17-2017 21:08:02 21o 18.932' ( 21.3155) 157o 52.592' (-157.8765) 18.00 271
7-17-2017 20:37:32 21o 18.933' ( 21.3156) 157o 52.591' (-157.8765) 18.00 271
7-17-2017 20:06:30 21o 18.931' ( 21.3155) 157o 52.590' (-157.8765) -5.00 271
7-17-2017 19:35:59 21o 18.929' ( 21.3155) 157o 52.591' (-157.8765) 32.00 271
7-17-2017 19:05:24 21o 18.928' ( 21.3155) 157o 52.594' (-157.8766) -4.00 271
7-17-2017 18:34:54 21o 18.925' ( 21.3154) 157o 52.621' (-157.8770) 146.00 271
7-17-2017 17:28:32 21o 18.928' ( 21.3155) 157o 52.598' (-157.8766) 19.00 80
7-17-2017 16:58:02 21o 18.923' ( 21.3154) 157o 52.616' (-157.8769) 42.00 80
7-17-2017 16:27:05 21o 18.917' ( 21.3153) 157o 52.620' (-157.8770) 82.00 80
7-17-2017 15:56:30 21o 18.928' ( 21.3155) 157o 52.608' (-157.8768) 43.00 80
7-17-2017 15:25:58 21o 18.928' ( 21.3155) 157o 52.596' (-157.8766) 24.00 80
7-17-2017 13:43:58 21o 18.937' ( 21.3156) 157o 52.596' (-157.8766) 26.00 80
7-17-2017 13:13:22 21o 18.925' ( 21.3154) 157o 52.622' (-157.8770) 100.00 80
7-17-2017 11:31:12 21o 18.923' ( 21.3154) 157o 52.603' (-157.8767) 2.00 80
7-17-2017 11:00:39 21o 18.929' ( 21.3155) 157o 52.598' (-157.8766) 27.00 80
7-17-2017 9:54:27 21o 18.929' ( 21.3155) 157o 52.575' (-157.8762) -23.00 80
7-17-2017 9:23:54 21o 18.928' ( 21.3155) 157o 52.601' (-157.8767) 30.00 80
7-17-2017 8:53:56 21o 18.928' ( 21.3155) 157o 52.591' (-157.8765) 19.00 80
7-17-2017 8:22:55 21o 18.931' ( 21.3155) 157o 52.594' (-157.8766) 2.00 80
7-17-2017 7:52:20 21o 18.930' ( 21.3155) 157o 52.591' (-157.8765) 36.00 80
7-17-2017 7:21:47 21o 18.926' ( 21.3154) 157o 52.586' (-157.8764) 17.00 80
7-17-2017 6:51:17 21o 18.929' ( 21.3155) 157o 52.587' (-157.8765) 21.00 80
7-17-2017 5:44:32 21o 18.929' ( 21.3155) 157o 52.589' (-157.8765) 26.00 80
7-17-2017 5:14:02 21o 18.929' ( 21.3155) 157o 52.588' (-157.8765) 20.00 80
7-17-2017 4:43:04 21o 18.931' ( 21.3155) 157o 52.591' (-157.8765) 22.00 80
7-17-2017 4:12:56 21o 18.929' ( 21.3155) 157o 52.585' (-157.8764) 23.00 80
7-17-2017 3:41:46 21o 18.935' ( 21.3156) 157o 52.592' (-157.8765) 14.00 80
7-17-2017 3:11:04 21o 18.929' ( 21.3155) 157o 52.603' (-157.8767) 31.00 80
7-17-2017 2:04:33 21o 18.919' ( 21.3153) 157o 52.636' (-157.8773) -12.00 80
7-17-2017 1:33:48 21o 18.931' ( 21.3155) 157o 52.591' (-157.8765) 26.00 80
7-17-2017 1:03:07 21o 18.931' ( 21.3155) 157o 52.610' (-157.8768) 76.00 265

Rockblock # 3 : IMEI 26020 (s/n 11251)
GMT GMT Latitude Longitude Speed Heading
date time deg N deg W knots deg
7-18-2017 20:59:56 21o 18.928' ( 21.3155) 157o 52.589' (-157.8765) 22.00 305
7-18-2017 19:51:33 21o 18.931' ( 21.3155) 157o 52.589' (-157.8765) 40.00 99
7-18-2017 19:20:08 21o 18.928' ( 21.3155) 157o 52.590' (-157.8765) 61.00 99
7-18-2017 17:34:33 21o 18.929' ( 21.3155) 157o 52.600' (-157.8767) 49.00 99
7-18-2017 17:03:10 21o 18.928' ( 21.3155) 157o 52.583' (-157.8764) 12.00 99
7-18-2017 16:31:52 21o 18.899' ( 21.3150) 157o 52.605' (-157.8767) 169.00 99
7-18-2017 16:00:25 21o 18.933' ( 21.3156) 157o 52.580' (-157.8763) -88.00 99
7-18-2017 15:28:59 21o 18.934' ( 21.3156) 157o 52.596' (-157.8766) 23.00 99
7-18-2017 14:21:06 21o 18.947' ( 21.3158) 157o 52.601' (-157.8767) 74.00 262
7-18-2017 13:49:30 21o 18.929' ( 21.3155) 157o 52.587' (-157.8765) 16.00 262
7-18-2017 13:18:05 21o 18.919' ( 21.3153) 157o 52.592' (-157.8765) 25.00 262
7-18-2017 12:10:01 21o 18.924' ( 21.3154) 157o 52.611' (-157.8768) 63.00 262
7-18-2017 11:38:47 21o 18.927' ( 21.3154) 157o 52.580' (-157.8763) -9.00 108
7-18-2017 11:07:31 21o 18.943' ( 21.3157) 157o 52.604' (-157.8767) 68.00 108
7-18-2017 9:59:31 21o 18.935' ( 21.3156) 157o 52.584' (-157.8764) -2.00 108
7-18-2017 9:28:08 21o 18.931' ( 21.3155) 157o 52.601' (-157.8767) 54.00 108
7-18-2017 8:56:46 21o 18.931' ( 21.3155) 157o 52.588' (-157.8765) 23.00 108
7-18-2017 7:48:02 21o 18.932' ( 21.3155) 157o 52.582' (-157.8764) 16.00 108
7-18-2017 7:16:37 21o 18.938' ( 21.3156) 157o 52.612' (-157.8769) 58.00 108
7-18-2017 5:32:00 21o 18.921' ( 21.3153) 157o 52.592' (-157.8765) -37.00 108
7-18-2017 5:00:35 21o 18.934' ( 21.3156) 157o 52.600' (-157.8767) 43.00 108
7-18-2017 4:29:06 21o 18.937' ( 21.3156) 157o 52.582' (-157.8764) -29.00 108
7-18-2017 3:57:47 21o 18.932' ( 21.3155) 157o 52.615' (-157.8769) -15.00 108
7-18-2017 3:26:16 21o 18.928' ( 21.3155) 157o 52.595' (-157.8766) 15.00 88
7-18-2017 2:54:41 21o 18.928' ( 21.3155) 157o 52.607' (-157.8768) 48.00 88
7-18-2017 2:23:19 21o 18.931' ( 21.3155) 157o 52.606' (-157.8768) -43.00 99
7-18-2017 1:51:45 21o 18.927' ( 21.3154) 157o 52.594' (-157.8766) 23.00 99
7-18-2017 1:20:08 21o 18.924' ( 21.3154) 157o 52.592' (-157.8765) 15.00 99
7-18-2017 0:11:56 21o 18.935' ( 21.3156) 157o 52.600' (-157.8767) 27.00 99
7-17-2017 23:40:27 21o 18.927' ( 21.3154) 157o 52.591' (-157.8765) 14.00 99
7-17-2017 23:09:01 21o 18.930' ( 21.3155) 157o 52.603' (-157.8767) 27.00 99
7-17-2017 22:00:26 21o 18.919' ( 21.3153) 157o 52.606' (-157.8768) 95.00 99
7-17-2017 21:28:46 21o 18.931' ( 21.3155) 157o 52.587' (-157.8765) 19.00 99
7-17-2017 20:57:13 21o 18.930' ( 21.3155) 157o 52.592' (-157.8765) 28.00 99
7-17-2017 19:49:05 21o 18.925' ( 21.3154) 157o 52.598' (-157.8766) 40.00 99
7-17-2017 19:17:50 21o 18.920' ( 21.3153) 157o 52.592' (-157.8765) 116.00 99
7-17-2017 18:46:30 21o 18.932' ( 21.3155) 157o 52.594' (-157.8766) -28.00 295
7-17-2017 18:15:16 21o 18.934' ( 21.3156) 157o 52.600' (-157.8767) 8.00 295
7-17-2017 17:43:56 21o 18.928' ( 21.3155) 157o 52.596' (-157.8766) 95.00 295
7-17-2017 17:12:31 21o 18.932' ( 21.3155) 157o 52.592' (-157.8765) 35.00 295
7-17-2017 16:41:18 21o 18.931' ( 21.3155) 157o 52.592' (-157.8765) 16.00 2
7-17-2017 16:09:57 21o 18.927' ( 21.3154) 157o 52.607' (-157.8768) 45.00 2
7-17-2017 15:38:30 21o 18.932' ( 21.3155) 157o 52.598' (-157.8766) 15.00 2
7-17-2017 14:30:19 21o 18.956' ( 21.3159) 157o 52.589' (-157.8765) 203.00 99
7-17-2017 13:58:56 21o 18.934' ( 21.3156) 157o 52.603' (-157.8767) 18.00 99
7-17-2017 13:27:35 21o 18.933' ( 21.3156) 157o 52.601' (-157.8767) 33.00 99
7-17-2017 12:56:11 21o 18.927' ( 21.3154) 157o 52.595' (-157.8766) 44.00 99
7-17-2017 11:48:03 21o 18.932' ( 21.3155) 157o 52.582' (-157.8764) 1.00 99
7-17-2017 11:16:40 21o 18.920' ( 21.3153) 157o 52.616' (-157.8769) 109.00 99
7-17-2017 10:08:23 21o 18.938' ( 21.3156) 157o 52.604' (-157.8767) 58.00 99
7-17-2017 9:36:57 21o 18.925' ( 21.3154) 157o 52.596' (-157.8766) 36.00 99
7-17-2017 8:29:05 21o 18.923' ( 21.3154) 157o 52.589' (-157.8765) 25.00 99
7-17-2017 7:57:52 21o 18.945' ( 21.3158) 157o 52.612' (-157.8769) 36.00 99
7-17-2017 7:26:26 21o 18.931' ( 21.3155) 157o 52.608' (-157.8768) 44.00 99
7-17-2017 6:55:01 21o 18.920' ( 21.3153) 157o 52.606' (-157.8768) 79.00 44
7-17-2017 5:46:58 21o 18.929' ( 21.3155) 157o 52.589' (-157.8765) 40.00 44
7-17-2017 5:15:32 21o 18.931' ( 21.3155) 157o 52.603' (-157.8767) 31.00 44
7-17-2017 4:44:16 21o 18.932' ( 21.3155) 157o 52.595' (-157.8766) 15.00 44
7-17-2017 4:13:02 21o 18.934' ( 21.3156) 157o 52.609' (-157.8768) 76.00 44
7-17-2017 3:41:31 21o 18.931' ( 21.3155) 157o 52.609' (-157.8768) -35.00 44
7-17-2017 3:09:58 21o 18.925' ( 21.3154) 157o 52.629' (-157.8772) 62.00 44
7-17-2017 2:38:36 21o 18.928' ( 21.3155) 157o 52.612' (-157.8769) -53.00 44
7-17-2017 2:07:07 21o 18.943' ( 21.3157) 157o 52.605' (-157.8767) 56.00 44
7-17-2017 1:35:25 21o 18.928' ( 21.3155) 157o 52.589' (-157.8765) 5.00 44
7-17-2017 1:03:58 21o 18.928' ( 21.3155) 157o 52.601' (-157.8767) 21.00 44

Rockblock # 4 : IMEI 23030 (s/n 11275)
GMT GMT Latitude Longitude Speed Heading
date time deg N deg W knots deg
7-18-2017 21:19:04 21o 18.929' ( 21.3155) 157o 52.570' (-157.8762) -22.00 0

Rockblock # 7 : IMEI 20890 (s/n 11278)
GMT GMT Latitude Longitude Speed Heading
date time deg N deg W knots deg
7-18-2017 21:26:25 21o 18.926' ( 21.3154) 157o 52.594' (-157.8766) 45.00 0

Rockblock # 8 : IMEI 27990 (s/n 11281)
GMT GMT Latitude Longitude Speed Heading
date time deg N deg W knots deg
7-18-2017 21:07:11 21o 18.926' ( 21.3154) 157o 52.587' (-157.8765) 40.00 11
7-18-2017 20:00:39 21o 18.934' ( 21.3156) 157o 52.592' (-157.8765) 1.00 11
7-18-2017 19:30:23 21o 18.928' ( 21.3155) 157o 52.586' (-157.8764) 26.00 11
7-18-2017 19:00:06 21o 18.930' ( 21.3155) 157o 52.589' (-157.8765) 16.00 11
7-18-2017 18:29:49 21o 18.934' ( 21.3156) 157o 52.603' (-157.8767) 30.00 11
7-18-2017 18:00:02 21o 18.931' ( 21.3155) 157o 52.597' (-157.8766) 33.00 11
7-18-2017 17:29:32 21o 18.931' ( 21.3155) 157o 52.607' (-157.8768) 60.00 11
7-18-2017 16:59:01 21o 18.931' ( 21.3155) 157o 52.590' (-157.8765) 7.00 11
7-18-2017 16:29:02 21o 18.930' ( 21.3155) 157o 52.576' (-157.8763) 2.00 11
7-18-2017 15:58:30 21o 18.926' ( 21.3154) 157o 52.573' (-157.8762) -3.00 11
7-18-2017 15:28:17 21o 18.929' ( 21.3155) 157o 52.607' (-157.8768) 39.00 11
7-18-2017 14:58:32 21o 18.941' ( 21.3157) 157o 52.621' (-157.8770) 94.00 11
7-18-2017 14:28:02 21o 18.926' ( 21.3154) 157o 52.573' (-157.8762) 8.00 11
7-18-2017 13:57:27 21o 18.942' ( 21.3157) 157o 52.597' (-157.8766) 39.00 11
7-18-2017 13:27:12 21o 18.921' ( 21.3153) 157o 52.584' (-157.8764) 14.00 11
7-18-2017 12:21:15 21o 18.932' ( 21.3155) 157o 52.591' (-157.8765) 29.00 11
7-18-2017 11:15:38 21o 18.928' ( 21.3155) 157o 52.585' (-157.8764) 32.00 11
7-18-2017 10:09:13 21o 18.940' ( 21.3157) 157o 52.582' (-157.8764) -24.00 11
7-18-2017 9:38:57 21o 18.927' ( 21.3154) 157o 52.594' (-157.8766) 24.00 11
7-18-2017 9:08:39 21o 18.923' ( 21.3154) 157o 52.598' (-157.8766) 43.00 11
7-18-2017 8:38:25 21o 18.928' ( 21.3155) 157o 52.592' (-157.8765) 29.00 11
7-18-2017 8:08:32 21o 18.926' ( 21.3154) 157o 52.594' (-157.8766) 19.00 11
7-18-2017 7:37:53 21o 18.930' ( 21.3155) 157o 52.595' (-157.8766) 16.00 11
7-18-2017 7:07:35 21o 18.928' ( 21.3155) 157o 52.594' (-157.8766) 16.00 11
7-18-2017 6:37:18 21o 18.928' ( 21.3155) 157o 52.594' (-157.8766) 48.00 11
7-18-2017 6:07:32 21o 18.932' ( 21.3155) 157o 52.587' (-157.8765) 2.00 11
7-18-2017 5:37:02 21o 18.930' ( 21.3155) 157o 52.588' (-157.8765) 9.00 11
7-18-2017 5:06:25 21o 18.925' ( 21.3154) 157o 52.588' (-157.8765) 17.00 11
7-18-2017 4:36:32 21o 18.928' ( 21.3155) 157o 52.591' (-157.8765) 33.00 11
7-18-2017 4:06:02 21o 18.928' ( 21.3155) 157o 52.591' (-157.8765) 17.00 11
7-18-2017 3:35:18 21o 18.928' ( 21.3155) 157o 52.594' (-157.8766) 22.00 11
7-18-2017 3:04:53 21o 18.931' ( 21.3155) 157o 52.589' (-157.8765) -6.00 11
7-18-2017 1:58:08 21o 18.929' ( 21.3155) 157o 52.616' (-157.8769) 20.00 11
7-18-2017 1:27:41 21o 18.931' ( 21.3155) 157o 52.588' (-157.8765) 12.00 11
7-18-2017 0:21:42 21o 18.932' ( 21.3155) 157o 52.583' (-157.8764) 3.00 99
7-17-2017 23:51:21 21o 18.934' ( 21.3156) 157o 52.603' (-157.8767) 50.00 99
7-17-2017 23:20:59 21o 18.947' ( 21.3158) 157o 52.607' (-157.8768) 78.00 99
7-17-2017 22:51:02 21o 18.928' ( 21.3155) 157o 52.592' (-157.8765) 21.00 99
7-17-2017 22:20:32 21o 18.934' ( 21.3156) 157o 52.575' (-157.8762) 32.00 99
7-17-2017 21:50:20 21o 18.929' ( 21.3155) 157o 52.563' (-157.8760) 0.00 99
7-17-2017 21:19:22 21o 18.930' ( 21.3155) 157o 52.595' (-157.8766) 31.00 99
7-17-2017 20:48:58 21o 18.931' ( 21.3155) 157o 52.594' (-157.8766) 20.00 99
7-17-2017 20:18:39 21o 18.932' ( 21.3155) 157o 52.594' (-157.8766) 4.00 99
7-17-2017 19:48:22 21o 18.929' ( 21.3155) 157o 52.590' (-157.8765) 9.00 99
7-17-2017 19:18:05 21o 18.926' ( 21.3154) 157o 52.584' (-157.8764) 35.00 99
7-17-2017 18:47:47 21o 18.926' ( 21.3154) 157o 52.592' (-157.8765) 26.00 99
7-17-2017 17:10:40 21o 18.941' ( 21.3157) 157o 52.617' (-157.8769) 52.00 99
7-17-2017 16:40:24 21o 18.928' ( 21.3155) 157o 52.582' (-157.8764) 9.00 99
7-17-2017 16:10:09 21o 18.931' ( 21.3155) 157o 52.594' (-157.8766) 6.00 99
7-17-2017 15:39:53 21o 18.931' ( 21.3155) 157o 52.592' (-157.8765) 18.00 99
7-17-2017 15:09:37 21o 18.934' ( 21.3156) 157o 52.597' (-157.8766) 35.00 99
7-17-2017 14:39:56 21o 18.927' ( 21.3154) 157o 52.590' (-157.8765) 26.00 99
7-17-2017 14:09:07 21o 18.933' ( 21.3156) 157o 52.586' (-157.8764) 16.00 99
7-17-2017 13:38:51 21o 18.921' ( 21.3153) 157o 52.573' (-157.8762) 46.00 99
7-17-2017 13:08:37 21o 18.926' ( 21.3154) 157o 52.585' (-157.8764) 26.00 99
7-17-2017 12:38:24 21o 18.922' ( 21.3154) 157o 52.606' (-157.8768) 62.00 99
7-17-2017 12:08:06 21o 18.929' ( 21.3155) 157o 52.594' (-157.8766) 18.00 99
7-17-2017 11:37:48 21o 18.929' ( 21.3155) 157o 52.586' (-157.8764) 3.00 99
7-17-2017 9:56:23 21o 18.926' ( 21.3154) 157o 52.589' (-157.8765) 24.00 135
7-17-2017 9:26:05 21o 18.929' ( 21.3155) 157o 52.590' (-157.8765) 16.00 135
7-17-2017 8:20:17 21o 18.927' ( 21.3154) 157o 52.587' (-157.8765) 26.00 135
7-17-2017 7:50:00 21o 18.928' ( 21.3155) 157o 52.589' (-157.8765) 15.00 135
7-17-2017 7:19:41 21o 18.926' ( 21.3154) 157o 52.594' (-157.8766) 30.00 135
7-17-2017 6:49:26 21o 18.929' ( 21.3155) 157o 52.585' (-157.8764) 24.00 135
7-17-2017 5:43:05 21o 18.937' ( 21.3156) 157o 52.585' (-157.8764) -14.00 135
7-17-2017 5:12:43 21o 18.928' ( 21.3155) 157o 52.583' (-157.8764) 28.00 135
7-17-2017 4:06:43 21o 18.929' ( 21.3155) 157o 52.587' (-157.8765) 5.00 135
7-17-2017 3:36:17 21o 18.929' ( 21.3155) 157o 52.576' (-157.8763) 9.00 135
7-17-2017 3:05:52 21o 18.928' ( 21.3155) 157o 52.587' (-157.8765) 18.00 135
7-17-2017 2:36:02 21o 18.928' ( 21.3155) 157o 52.595' (-157.8766) 16.00 135
7-17-2017 2:05:05 21o 18.922' ( 21.3154) 157o 52.596' (-157.8766) 28.00 135
7-17-2017 1:34:31 21o 18.938' ( 21.3156) 157o 52.598' (-157.8766) 53.00 135
7-17-2017 1:04:02 21o 18.926' ( 21.3154) 157o 52.592' (-157.8765) 57.00 135

Rockblock # 9 : IMEI 28990 (s/n 11282)
GMT GMT Latitude Longitude Speed Heading
date time deg N deg W knots deg
7-18-2017 21:18:33 21o 18.932' ( 21.3155) 157o 52.594' (-157.8766) 6.00 0

Rockblock # 10 : IMEI 24010 (s/n 11287)
GMT GMT Latitude Longitude Speed Heading
date time deg N deg W knots deg
7-18-2017 21:24:35 21o 18.915' ( 21.3152) 157o 52.591' (-157.8765) -2.00 0

Rockblock # 12 : IMEI 58680 (s/n 11527)
GMT GMT Latitude Longitude Speed Heading
date time deg N deg W knots deg
7-18-2017 21:16:02 21o 18.932' ( 21.3155) 157o 52.583' (-157.8764) 7.00 0

Rockblock # 13 : IMEI 54400 (s/n 11543)
GMT GMT Latitude Longitude Speed Heading
date time deg N deg W knots deg
7-18-2017 20:33:20 21o 18.980' ( 21.3163) 157o 52.574' (-157.8762) 43.00 0

Rockblock # 14 : IMEI 51940 (s/n 11550)
GMT GMT Latitude Longitude Speed Heading
date time deg N deg W knots deg
7-17-2017 19:55:18 21o 18.922' ( 21.3154) 157o 52.583' (-157.8764) 0.00 2
7-17-2017 18:16:42 21o 18.917' ( 21.3153) 157o 52.596' (-157.8766) -8.00 2
7-17-2017 17:47:32 21o 18.935' ( 21.3156) 157o 52.570' (-157.8762) 14.00 2
7-17-2017 17:18:10 21o 18.947' ( 21.3158) 157o 52.578' (-157.8763) -60.00 2
7-17-2017 16:48:45 21o 18.920' ( 21.3153) 157o 52.588' (-157.8765) 15.00 2
7-17-2017 16:19:32 21o 18.929' ( 21.3155) 157o 52.590' (-157.8765) 21.00 2
7-17-2017 15:50:18 21o 18.920' ( 21.3153) 157o 52.573' (-157.8762) -3.00 2
7-17-2017 15:21:00 21o 18.914' ( 21.3152) 157o 52.567' (-157.8761) -51.00 2
7-17-2017 13:07:38 21o 18.910' ( 21.3152) 157o 52.585' (-157.8764) 1.00 3
7-17-2017 12:38:18 21o 18.924' ( 21.3154) 157o 52.592' (-157.8765) 49.00 3
7-17-2017 9:50:54 21o 18.926' ( 21.3154) 157o 52.582' (-157.8764) 33.00 3
7-17-2017 8:12:31 21o 18.918' ( 21.3153) 157o 52.562' (-157.8760) -63.00 3
7-17-2017 7:43:05 21o 18.921' ( 21.3153) 157o 52.585' (-157.8764) -16.00 261
7-17-2017 6:04:30 21o 18.913' ( 21.3152) 157o 52.588' (-157.8765) 121.00 261
7-17-2017 5:35:07 21o 18.928' ( 21.3155) 157o 52.597' (-157.8766) 2.00 261
7-17-2017 5:05:40 21o 18.928' ( 21.3155) 157o 52.574' (-157.8762) -15.00 261
7-17-2017 4:36:20 21o 18.904' ( 21.3151) 157o 52.613' (-157.8769) 14.00 261
7-17-2017 4:06:52 21o 18.926' ( 21.3154) 157o 52.577' (-157.8763) -9.00 261
7-17-2017 2:27:47 21o 18.921' ( 21.3153) 157o 52.607' (-157.8768) 70.00 261
7-17-2017 1:58:25 21o 18.922' ( 21.3154) 157o 52.576' (-157.8763) 6.00 261
7-17-2017 0:54:37 21o 18.928' ( 21.3155) 157o 52.621' (-157.8770) 89.00 50